Time;durP1;ratioP1;P1;durP2;ratioP2;P2;SDS_P1;SDS_P2;PMS_P1;PMS_P2;Temp;Humidity;BMP_temperature;BMP_pressure;BME280_temperature;BME280_humidity;BME280_pressure;Samples;Min_cycle;Max_cycle;Signal;HPM_P1;HPM_P2
2022/01/07 00:01:54;;;;;;;0.43;0.43;;;14.30;63.20;;;;;;4997249;28;20042;-22
2022/01/07 00:04:20;;;;;;;0.47;0.47;;;14.40;63.40;;;;;;4999651;28;20052;-21
2022/01/07 00:06:45;;;;;;;0.65;0.65;;;14.40;63.40;;;;;;5017062;28;20080;-22
2022/01/07 00:09:11;;;;;;;0.68;0.43;;;14.40;63.40;;;;;;5017333;28;20049;-22
2022/01/07 00:11:36;;;;;;;0.57;0.57;;;14.40;63.20;;;;;;5016382;28;20046;-20
2022/01/07 00:14:02;;;;;;;0.40;0.40;;;14.40;63.30;;;;;;5017327;28;20042;-21
2022/01/07 00:16:28;;;;;;;0.50;0.50;;;14.40;63.40;;;;;;5017121;28;20050;-20
2022/01/07 00:18:53;;;;;;;0.60;0.50;;;14.40;63.30;;;;;;5016715;28;20506;-20
2022/01/07 00:21:20;;;;;;;0.32;0.32;;;14.40;63.20;;;;;;5017196;28;20053;-20
2022/01/07 00:23:46;;;;;;;0.40;0.40;;;14.40;63.30;;;;;;5007161;28;20125;-22
2022/01/07 00:26:12;;;;;;;0.75;0.70;;;14.40;63.40;;;;;;4997338;28;20065;-22
2022/01/07 00:28:37;;;;;;;1.08;0.60;;;14.40;63.30;;;;;;4997439;28;20507;-20
2022/01/07 00:31:03;;;;;;;0.30;0.30;;;14.40;63.30;;;;;;4996781;28;20054;-21
2022/01/07 00:33:28;;;;;;;0.63;0.43;;;14.40;63.30;;;;;;4997439;28;20839;-21
2022/01/07 00:35:56;;;;;;;0.73;0.50;;;14.40;63.30;;;;;;4996613;28;20043;-20
2022/01/07 00:38:22;;;;;;;0.32;0.32;;;14.40;63.40;;;;;;4997334;28;20042;-20
2022/01/07 00:40:48;;;;;;;0.43;0.43;;;14.40;63.30;;;;;;4996516;28;20046;-20
2022/01/07 00:43:14;;;;;;;0.70;0.70;;;14.40;63.30;;;;;;4996856;28;20462;-22
2022/01/07 00:45:40;;;;;;;0.30;0.30;;;14.40;63.20;;;;;;4996588;28;20050;-22
2022/01/07 00:48:05;;;;;;;0.47;0.47;;;14.40;63.30;;;;;;4997067;28;20108;-21
2022/01/07 00:50:31;;;;;;;0.30;0.30;;;14.40;63.30;;;;;;4997058;28;20046;-19
2022/01/07 00:52:57;;;;;;;0.50;0.50;;;14.40;63.20;;;;;;4996065;28;20499;-20
2022/01/07 00:55:23;;;;;;;0.30;0.30;;;14.40;63.30;;;;;;4997102;28;20376;-23
2022/01/07 00:57:49;;;;;;;0.30;0.30;;;14.40;63.30;;;;;;4995700;28;20102;-22
2022/01/07 01:00:17;;;;;;;0.30;0.30;;;14.30;63.40;;;;;;4996489;28;20451;-20
2022/01/07 01:02:42;;;;;;;0.40;0.40;;;14.40;63.40;;;;;;4996190;28;20128;-24
2022/01/07 01:05:09;;;;;;;0.60;0.60;;;14.40;63.30;;;;;;5003694;28;20045;-23
2022/01/07 01:07:35;;;;;;;0.22;0.22;;;14.40;63.30;;;;;;5016414;28;20052;-21
2022/01/07 01:10:01;;;;;;;0.20;0.20;;;14.30;63.30;;;;;;5015621;28;20053;-20
2022/01/07 01:12:27;;;;;;;0.40;0.40;;;14.40;63.30;;;;;;5015992;28;20048;-20
2022/01/07 01:14:52;;;;;;;0.75;0.32;;;14.40;63.20;;;;;;5015559;28;20038;-20
2022/01/07 01:17:18;;;;;;;0.40;0.40;;;14.40;63.30;;;;;;5016272;28;20042;-21
2022/01/07 01:19:43;;;;;;;0.40;0.40;;;14.30;63.40;;;;;;5015632;28;20487;-24
2022/01/07 01:22:09;;;;;;;0.30;0.20;;;14.30;63.30;;;;;;5016005;28;20129;-21
2022/01/07 01:24:35;;;;;;;0.30;0.30;;;14.30;63.40;;;;;;5000557;28;20061;-20
2022/01/07 01:27:01;;;;;;;0.30;0.30;;;14.40;63.30;;;;;;4994390;28;20046;-20
2022/01/07 01:29:26;;;;;;;0.50;0.50;;;14.30;63.20;;;;;;4996326;28;20042;-22
2022/01/07 01:31:52;;;;;;;0.38;0.38;;;14.30;63.50;;;;;;4995745;28;20121;-22
2022/01/07 01:34:18;;;;;;;0.30;0.30;;;14.30;63.40;;;;;;4996307;28;20379;-22
2022/01/07 01:36:43;;;;;;;0.40;0.40;;;14.30;63.50;;;;;;4995761;28;20042;-22
2022/01/07 01:39:12;;;;;;;0.40;0.40;;;14.30;63.50;;;;;;4996151;28;20050;-22
2022/01/07 01:41:38;;;;;;;0.50;0.20;;;14.30;63.50;;;;;;4995995;28;20142;-22
2022/01/07 01:44:03;;;;;;;0.40;0.40;;;14.30;63.30;;;;;;4995591;28;20050;-21
2022/01/07 01:46:29;;;;;;;0.28;0.28;;;14.30;63.40;;;;;;4996164;28;20050;-22
2022/01/07 01:48:55;;;;;;;0.40;0.40;;;14.30;63.40;;;;;;4995132;28;20046;-22
2022/01/07 01:51:20;;;;;;;0.55;0.55;;;14.30;63.50;;;;;;4995279;28;20050;-22
2022/01/07 01:53:46;;;;;;;0.47;0.35;;;14.30;63.40;;;;;;4995480;28;20052;-23
2022/01/07 01:56:11;;;;;;;0.40;0.40;;;14.30;63.50;;;;;;4995282;28;20378;-23
2022/01/07 01:58:37;;;;;;;0.50;0.50;;;14.30;63.60;;;;;;4996045;28;20043;-22
2022/01/07 02:01:02;;;;;;;0.40;0.40;;;14.30;63.50;;;;;;4995389;28;20128;-22
2022/01/07 02:03:28;;;;;;;0.40;0.40;;;14.30;63.50;;;;;;4995884;28;20049;-22
2022/01/07 02:05:54;;;;;;;0.40;0.40;;;14.40;63.40;;;;;;4995203;28;20039;-20
2022/01/07 02:08:20;;;;;;;0.38;0.30;;;14.30;63.50;;;;;;4994393;28;20096;-21
2022/01/07 02:10:45;;;;;;;0.30;0.30;;;14.20;63.60;;;;;;4994439;28;20059;-21
2022/01/07 02:13:11;;;;;;;0.30;0.30;;;14.30;63.70;;;;;;4995777;28;20038;-21
2022/01/07 02:15:37;;;;;;;0.50;0.50;;;14.30;63.50;;;;;;4995767;28;20096;-19
2022/01/07 02:18:03;;;;;;;0.50;0.50;;;14.30;63.50;;;;;;4995182;28;20046;-21
2022/01/07 02:20:29;;;;;;;0.47;0.47;;;14.30;63.40;;;;;;4995402;28;20046;-21
2022/01/07 02:22:55;;;;;;;0.32;0.32;;;14.30;63.30;;;;;;4995310;28;20038;-21
2022/01/07 02:25:21;;;;;;;0.43;0.43;;;14.30;63.30;;;;;;4987888;28;20042;-20
2022/01/07 02:27:47;;;;;;;0.40;0.40;;;14.30;64.30;;;;;;4994521;28;20038;-24
2022/01/07 02:30:20;;;;;;;0.30;0.30;;;14.30;63.40;;;;;;4995759;28;20054;-21
2022/01/07 02:32:46;;;;;;;0.30;0.30;;;14.30;63.50;;;;;;4994771;28;20506;-24
2022/01/07 02:35:12;;;;;;;0.30;0.30;;;14.30;63.50;;;;;;4995746;28;20039;-22
2022/01/07 02:37:37;;;;;;;0.40;0.40;;;14.30;63.60;;;;;;4996508;28;20045;-22
2022/01/07 02:40:05;;;;;;;0.43;0.43;;;14.30;63.50;;;;;;4998906;28;20042;-21
2022/01/07 02:42:30;;;;;;;0.30;0.30;;;14.30;63.50;;;;;;4999288;28;20422;-22
2022/01/07 02:44:56;;;;;;;0.22;0.22;;;14.30;63.30;;;;;;4998941;28;20046;-22
2022/01/07 02:47:22;;;;;;;0.40;0.20;;;14.40;63.40;;;;;;4999296;28;20039;-21
2022/01/07 02:49:48;;;;;;;0.50;0.40;;;14.30;63.60;;;;;;4999391;28;20463;-21
2022/01/07 02:52:14;;;;;;;0.17;0.17;;;14.30;63.50;;;;;;5010106;28;20410;-20
2022/01/07 02:54:40;;;;;;;0.28;0.28;;;14.30;63.50;;;;;;5018980;28;20050;-20
2022/01/07 02:57:06;;;;;;;0.30;0.30;;;14.30;63.50;;;;;;5018010;28;20499;-21
2022/01/07 02:59:31;;;;;;;0.38;0.38;;;14.30;63.50;;;;;;5018855;28;20172;-20
2022/01/07 03:01:57;;;;;;;0.30;0.30;;;14.30;63.50;;;;;;5017461;28;20042;-20
2022/01/07 03:04:24;;;;;;;0.20;0.20;;;14.30;63.40;;;;;;5018559;28;20073;-19
2022/01/07 03:06:49;;;;;;;0.20;0.20;;;14.30;63.50;;;;;;5018036;28;20041;-20
2022/01/07 03:09:15;;;;;;;0.32;0.30;;;14.30;63.50;;;;;;5018384;28;20152;-22
2022/01/07 03:11:41;;;;;;;0.32;0.32;;;14.30;63.40;;;;;;5018172;28;20069;-21
2022/01/07 03:14:06;;;;;;;0.32;0.32;;;14.30;63.40;;;;;;5017903;28;20050;-21
2022/01/07 03:16:32;;;;;;;0.30;0.30;;;14.30;63.50;;;;;;5018442;28;20124;-20
2022/01/07 03:18:57;;;;;;;0.35;0.35;;;14.30;63.50;;;;;;5017098;28;20564;-22
2022/01/07 03:21:23;;;;;;;0.45;0.45;;;14.30;63.50;;;;;;5017824;28;20153;-21
2022/01/07 03:23:49;;;;;;;0.20;0.20;;;14.30;63.50;;;;;;5017443;28;20049;-22
2022/01/07 03:26:14;;;;;;;0.40;0.40;;;14.30;63.50;;;;;;5017341;28;20058;-23
2022/01/07 03:28:40;;;;;;;0.28;0.25;;;14.20;63.50;;;;;;5018032;28;20145;-22
2022/01/07 03:31:06;;;;;;;0.32;0.30;;;14.30;63.60;;;;;;5017526;28;20038;-21
2022/01/07 03:33:31;;;;;;;0.30;0.28;;;14.30;63.50;;;;;;5018188;28;20176;-22
2022/01/07 03:35:57;;;;;;;0.20;0.15;;;14.30;63.50;;;;;;5017502;28;20119;-22
2022/01/07 03:38:23;;;;;;;0.20;0.20;;;14.30;63.50;;;;;;5018141;28;20042;-22
2022/01/07 03:40:49;;;;;;;0.30;0.30;;;14.30;63.50;;;;;;5017696;28;20046;-21
2022/01/07 03:43:14;;;;;;;0.40;0.40;;;14.30;63.50;;;;;;5017358;28;20050;-22
2022/01/07 03:45:40;;;;;;;0.32;0.30;;;14.20;63.50;;;;;;5017953;28;20137;-20
2022/01/07 03:48:05;;;;;;;0.30;0.25;;;14.20;63.40;;;;;;5017289;28;20050;-22
2022/01/07 03:50:31;;;;;;;0.20;0.20;;;14.20;63.60;;;;;;5017241;28;20137;-22
2022/01/07 03:52:57;;;;;;;0.20;0.20;;;14.30;63.50;;;;;;5017135;28;20060;-20
2022/01/07 03:55:24;;;;;;;0.55;0.40;;;14.30;63.50;;;;;;5017561;28;20073;-22
2022/01/07 03:57:50;;;;;;;0.30;0.30;;;14.30;63.50;;;;;;5017207;28;20053;-20
2022/01/07 04:00:18;;;;;;;0.20;0.20;;;14.20;63.40;;;;;;5016846;28;20034;-20
2022/01/07 04:02:44;;;;;;;0.28;0.28;;;14.20;63.60;;;;;;5017666;28;20053;-20
2022/01/07 04:05:10;;;;;;;0.28;0.28;;;14.30;63.50;;;;;;5016685;28;20045;-20
2022/01/07 04:07:35;;;;;;;0.32;0.20;;;14.30;63.50;;;;;;5017700;28;20598;-21
2022/01/07 04:10:02;;;;;;;0.65;0.32;;;14.20;63.50;;;;;;5016656;28;20451;-21
2022/01/07 04:12:28;;;;;;;0.20;0.20;;;14.30;63.50;;;;;;5016867;28;20411;-20
2022/01/07 04:15:09;;;;;;;0.20;0.20;;;14.30;63.50;;;;;;5016065;28;20046;-20
2022/01/07 04:17:38;;;;;;;0.22;0.22;;;14.20;63.60;;;;;;5017471;28;20050;-22
2022/01/07 04:20:05;;;;;;;0.40;0.32;;;14.20;63.60;;;;;;5016778;28;20046;-23
2022/01/07 04:22:30;;;;;;;0.30;0.30;;;14.20;63.60;;;;;;5016945;28;20140;-19
2022/01/07 04:24:56;;;;;;;0.30;0.30;;;14.20;63.60;;;;;;5016654;28;20092;-22
2022/01/07 04:27:21;;;;;;;0.25;0.25;;;14.20;63.60;;;;;;5016193;28;20049;-20
2022/01/07 04:29:47;;;;;;;0.30;0.30;;;14.20;63.60;;;;;;5016897;28;20558;-22
2022/01/07 04:32:13;;;;;;;0.40;0.20;;;14.20;63.60;;;;;;5016384;28;20457;-21
2022/01/07 04:34:38;;;;;;;0.38;0.38;;;14.20;63.60;;;;;;5017091;28;20431;-22
2022/01/07 04:37:04;;;;;;;0.50;0.22;;;14.20;63.60;;;;;;5015940;28;20112;-21
2022/01/07 04:39:30;;;;;;;0.43;0.40;;;14.20;63.60;;;;;;5016812;28;20520;-22
2022/01/07 04:41:59;;;;;;;0.32;0.30;;;14.20;63.60;;;;;;5016017;28;20136;-23
2022/01/07 04:44:24;;;;;;;0.45;0.20;;;14.20;63.60;;;;;;5016924;28;20046;-22
2022/01/07 04:46:50;;;;;;;0.40;0.28;;;14.20;63.60;;;;;;5016498;28;20455;-22
2022/01/07 04:49:15;;;;;;;0.40;0.40;;;14.20;63.60;;;;;;5016043;28;20076;-22
2022/01/07 04:51:41;;;;;;;0.40;0.40;;;14.20;64.50;;;;;;5016806;28;20065;-20
2022/01/07 04:54:06;;;;;;;0.40;0.30;;;14.20;63.60;;;;;;5016012;28;20053;-20
2022/01/07 04:56:32;;;;;;;0.52;0.38;;;14.30;63.60;;;;;;5016362;28;20077;-21
2022/01/07 04:58:58;;;;;;;0.30;0.22;;;14.20;63.50;;;;;;5016016;28;20590;-22
2022/01/07 05:01:23;;;;;;;0.22;0.22;;;14.20;63.70;;;;;;5015689;28;20068;-23
2022/01/07 05:03:49;;;;;;;0.50;0.50;;;14.20;63.60;;;;;;5016380;28;20054;-20
2022/01/07 05:08:58;;;;;;;0.40;0.30;;;14.20;63.60;;;;;;5015619;28;20131;-22
2022/01/07 05:11:24;;;;;;;0.30;0.30;;;14.20;63.50;;;;;;5016125;28;20046;-22
2022/01/07 05:13:50;;;;;;;0.35;0.35;;;14.20;63.60;;;;;;5016404;28;20045;-23
2022/01/07 05:16:15;;;;;;;0.35;0.20;;;14.20;63.70;;;;;;5015733;28;20522;-22
2022/01/07 05:18:41;;;;;;;0.28;0.28;;;14.20;63.70;;;;;;5016245;28;20056;-22
2022/01/07 05:21:06;;;;;;;0.30;0.30;;;14.20;63.70;;;;;;5015328;28;20514;-21
2022/01/07 05:23:32;;;;;;;0.28;0.20;;;14.20;63.60;;;;;;5016118;28;20050;-22
2022/01/07 05:25:58;;;;;;;0.30;0.30;;;14.20;63.60;;;;;;5015361;28;20049;-23
2022/01/07 05:28:23;;;;;;;0.32;0.28;;;14.10;63.70;;;;;;5015902;28;20046;-23
2022/01/07 05:30:49;;;;;;;0.40;0.32;;;14.20;63.80;;;;;;5016115;28;20042;-22
2022/01/07 05:33:14;;;;;;;0.22;0.20;;;14.10;63.70;;;;;;5015218;28;20038;-23
2022/01/07 05:35:40;;;;;;;0.20;0.20;;;14.20;63.80;;;;;;5015952;28;20133;-20
2022/01/07 05:38:05;;;;;;;0.30;0.20;;;14.10;63.80;;;;;;5015314;28;20037;-22
2022/01/07 05:40:31;;;;;;;0.30;0.30;;;14.20;63.80;;;;;;5012281;28;20399;-22
2022/01/07 05:42:57;;;;;;;0.52;0.20;;;14.10;63.80;;;;;;5012915;28;20053;-23
2022/01/07 05:45:22;;;;;;;0.43;0.20;;;14.10;63.80;;;;;;5015483;28;20049;-20
2022/01/07 05:47:48;;;;;;;0.30;0.30;;;14.10;63.90;;;;;;5012902;28;20061;-22
2022/01/07 05:50:14;;;;;;;0.20;0.20;;;14.20;63.90;;;;;;5000311;28;20613;-22
2022/01/07 05:52:39;;;;;;;0.30;0.30;;;14.10;63.80;;;;;;5009756;28;20035;-22
2022/01/07 05:55:05;;;;;;;0.80;0.40;;;14.20;63.70;;;;;;4995515;28;20138;-20
2022/01/07 05:57:31;;;;;;;0.40;0.38;;;14.20;63.80;;;;;;5006032;28;20057;-22
2022/01/07 05:59:56;;;;;;;0.30;0.30;;;14.20;63.60;;;;;;5001653;28;20492;-23
2022/01/07 06:02:22;;;;;;;0.25;0.20;;;14.20;63.60;;;;;;4993015;28;20205;-21
2022/01/07 06:04:48;;;;;;;0.30;0.30;;;14.10;63.70;;;;;;4987846;28;20074;-21
2022/01/07 06:07:14;;;;;;;0.35;0.20;;;14.20;63.70;;;;;;4990215;28;20475;-19
2022/01/07 06:09:39;;;;;;;0.30;0.25;;;14.20;63.70;;;;;;4991165;28;20567;-23
2022/01/07 06:12:05;;;;;;;0.43;0.30;;;14.20;63.60;;;;;;4993854;28;20041;-22
2022/01/07 06:14:31;;;;;;;0.50;0.40;;;14.20;63.60;;;;;;5000624;28;20050;-20
2022/01/07 06:16:56;;;;;;;0.20;0.20;;;14.20;63.50;;;;;;5000766;28;20118;-20
2022/01/07 06:19:22;;;;;;;0.50;0.32;;;14.20;63.50;;;;;;4999780;28;20057;-20
2022/01/07 06:21:48;;;;;;;0.52;0.52;;;14.20;63.60;;;;;;4996179;28;20042;-24
2022/01/07 06:24:13;;;;;;;0.22;0.20;;;14.20;63.80;;;;;;4998261;28;20519;-22
2022/01/07 06:26:39;;;;;;;0.35;0.20;;;14.20;63.70;;;;;;4998053;28;20070;-21
2022/01/07 06:29:05;;;;;;;0.20;0.20;;;14.20;63.70;;;;;;4997024;28;20069;-20
2022/01/07 06:31:30;;;;;;;0.20;0.20;;;14.10;63.70;;;;;;4998053;28;20061;-23
2022/01/07 06:33:58;;;;;;;0.35;0.20;;;14.10;63.80;;;;;;5000723;28;20142;-22
2022/01/07 06:36:24;;;;;;;0.55;0.32;;;14.10;63.80;;;;;;4997190;28;20445;-21
2022/01/07 06:38:49;;;;;;;0.40;0.40;;;14.10;63.70;;;;;;4997090;28;20042;-27
2022/01/07 06:41:15;;;;;;;0.20;0.20;;;14.20;63.80;;;;;;4995979;28;20042;-23
2022/01/07 06:43:41;;;;;;;0.20;0.20;;;14.10;63.80;;;;;;4996943;28;20046;-20
2022/01/07 06:46:08;;;;;;;0.30;0.30;;;14.10;63.80;;;;;;5004198;28;20041;-21
2022/01/07 06:48:33;;;;;;;0.30;0.30;;;14.10;63.90;;;;;;5000381;28;20061;-21
2022/01/07 06:50:59;;;;;;;0.20;0.10;;;14.10;63.80;;;;;;5008489;28;20047;-20
2022/01/07 06:53:24;;;;;;;0.20;0.20;;;14.10;63.80;;;;;;5007653;28;20061;-24
2022/01/07 06:55:50;;;;;;;0.20;0.20;;;14.10;63.60;;;;;;4998895;28;20514;-20
2022/01/07 06:58:16;;;;;;;0.50;0.30;;;14.10;63.70;;;;;;5000319;28;20036;-24
2022/01/07 07:00:41;;;;;;;0.38;0.38;;;14.10;63.70;;;;;;5010935;28;20522;-20
2022/01/07 07:03:07;;;;;;;0.20;0.20;;;14.10;63.80;;;;;;5001405;28;20392;-22
2022/01/07 07:05:32;;;;;;;0.38;0.30;;;14.10;63.70;;;;;;4996822;28;20100;-26
2022/01/07 07:07:58;;;;;;;0.52;0.22;;;14.10;63.80;;;;;;5007195;28;20077;-24
2022/01/07 07:10:25;;;;;;;0.30;0.30;;;14.10;63.70;;;;;;5019336;28;20052;-26
2022/01/07 07:12:50;;;;;;;0.32;0.20;;;14.10;63.80;;;;;;5000163;28;20558;-21
2022/01/07 07:15:16;;;;;;;0.30;0.30;;;14.10;63.70;;;;;;4994190;28;20054;-24
2022/01/07 07:17:44;;;;;;;0.10;0.10;;;14.10;63.70;;;;;;4987098;28;20034;-26
2022/01/07 07:20:11;;;;;;;0.35;0.32;;;14.20;63.60;;;;;;4996438;28;20407;-22
2022/01/07 07:22:37;;;;;;;0.38;0.38;;;14.20;64.40;;;;;;4996660;28;20042;-22
2022/01/07 07:25:03;;;;;;;0.30;0.30;;;14.10;63.60;;;;;;4994776;28;20646;-25
2022/01/07 07:27:28;;;;;;;0.20;0.20;;;14.10;63.70;;;;;;4991617;28;20051;-22
2022/01/07 07:29:54;;;;;;;0.20;0.20;;;14.10;63.60;;;;;;4996043;28;20042;-23
2022/01/07 07:32:25;;;;;;;0.17;0.13;;;14.10;63.70;;;;;;4996099;28;20045;-23
2022/01/07 07:37:25;;;;;;;0.35;0.20;;;14.10;63.60;;;;;;5003564;28;20049;-23
2022/01/07 07:39:51;;;;;;;0.22;0.22;;;14.10;63.60;;;;;;4995277;28;20050;-21
2022/01/07 07:42:17;;;;;;;0.10;0.10;;;14.20;63.70;;;;;;4995080;28;20057;-27
2022/01/07 07:44:42;;;;;;;0.10;0.10;;;14.10;63.70;;;;;;4996947;28;20053;-23
2022/01/07 07:47:08;;;;;;;0.40;0.28;;;14.10;63.70;;;;;;4994480;28;20129;-21
2022/01/07 07:49:34;;;;;;;0.22;0.20;;;14.10;63.70;;;;;;4999079;28;20141;-21
2022/01/07 07:51:59;;;;;;;0.20;0.20;;;14.10;63.60;;;;;;5002854;28;20050;-25
2022/01/07 07:54:25;;;;;;;0.28;0.28;;;14.10;63.80;;;;;;4993737;28;20053;-22
2022/01/07 07:56:50;;;;;;;0.30;0.30;;;14.10;63.70;;;;;;4993126;28;20038;-24
2022/01/07 07:59:16;;;;;;;0.47;0.30;;;14.10;63.70;;;;;;4995881;28;20046;-23
2022/01/07 08:01:42;;;;;;;0.35;0.28;;;14.10;63.70;;;;;;5008039;28;20035;-24
2022/01/07 08:04:10;;;;;;;0.30;0.20;;;14.10;63.80;;;;;;4995729;28;20072;-24
2022/01/07 08:06:36;;;;;;;0.47;0.47;;;14.10;63.80;;;;;;4996541;28;20069;-23
2022/01/07 08:09:03;;;;;;;0.22;0.22;;;14.10;63.80;;;;;;5015390;28;20053;-23
2022/01/07 08:11:32;;;;;;;0.25;0.20;;;14.00;63.70;;;;;;5016573;28;20044;-24
2022/01/07 08:16:42;;;;;;;0.57;0.30;;;14.00;63.80;;;;;;4999404;28;20049;-23
2022/01/07 08:19:08;;;;;;;0.70;0.40;;;14.00;63.80;;;;;;4977443;28;20696;-23
2022/01/07 08:21:33;;;;;;;1.05;0.40;;;14.00;63.90;;;;;;4997356;28;20101;-23
2022/01/07 08:24:00;;;;;;;0.50;0.40;;;14.00;63.80;;;;;;4996146;28;20494;-28
2022/01/07 08:26:26;;;;;;;0.22;0.20;;;14.00;63.60;;;;;;5011505;28;20038;-24
2022/01/07 08:28:55;;;;;;;0.40;0.40;;;14.10;63.70;;;;;;4997288;28;20049;-21
2022/01/07 08:36:40;;;;;;;0.22;0.20;;;14.00;63.70;;;;;;5015534;28;20096;-25
2022/01/07 08:39:06;;;;;;;0.60;0.30;;;14.10;63.80;;;;;;5015699;28;20050;-24
2022/01/07 08:41:32;;;;;;;0.38;0.30;;;14.10;63.70;;;;;;5016399;28;20053;-26
2022/01/07 08:43:58;;;;;;;0.40;0.30;;;14.00;63.60;;;;;;5016408;28;20050;-23
2022/01/07 08:46:24;;;;;;;0.30;0.30;;;14.00;63.70;;;;;;5014806;28;20188;-24
2022/01/07 08:48:49;;;;;;;0.43;0.43;;;14.00;63.60;;;;;;5015178;28;20115;-27
2022/01/07 08:51:15;;;;;;;0.50;0.30;;;14.10;63.70;;;;;;5015857;28;20046;-26
2022/01/07 08:53:41;;;;;;;0.13;0.10;;;14.10;63.70;;;;;;5016422;28;20061;-24
2022/01/07 08:56:07;;;;;;;0.28;0.15;;;14.10;63.70;;;;;;5011828;28;20053;-28
2022/01/07 08:58:32;;;;;;;0.43;0.43;;;14.10;63.70;;;;;;5011436;28;20030;-23
2022/01/07 09:00:58;;;;;;;0.38;0.30;;;14.00;63.60;;;;;;5016876;28;20022;-26
2022/01/07 09:03:24;;;;;;;0.22;0.20;;;14.00;63.80;;;;;;5017221;28;20374;-22
2022/01/07 09:05:50;;;;;;;0.22;0.20;;;14.00;63.80;;;;;;5028688;28;20026;-24
2022/01/07 09:08:15;;;;;;;0.40;0.30;;;14.10;63.70;;;;;;5012349;28;20028;-21
2022/01/07 09:10:41;;;;;;;0.43;0.30;;;14.10;63.60;;;;;;5013262;28;20042;-21
2022/01/07 09:13:07;;;;;;;0.35;0.20;;;14.10;63.60;;;;;;5013495;28;20014;-22
2022/01/07 09:15:33;;;;;;;0.50;0.43;;;14.10;63.50;;;;;;5013664;28;20010;-20
2022/01/07 09:17:58;;;;;;;0.25;0.20;;;14.10;63.60;;;;;;5013543;28;20445;-21
2022/01/07 09:20:24;;;;;;;0.35;0.30;;;14.10;63.50;;;;;;5013380;28;20025;-22
2022/01/07 09:22:50;;;;;;;0.20;0.20;;;14.10;63.40;;;;;;5013565;28;20072;-22
2022/01/07 09:25:15;;;;;;;0.20;0.20;;;14.10;63.50;;;;;;5013433;28;20656;-23
2022/01/07 09:27:41;;;;;;;0.10;0.10;;;14.10;63.40;;;;;;5013483;28;20032;-22
2022/01/07 09:30:08;;;;;;;0.45;0.22;;;14.10;63.60;;;;;;5013262;28;20109;-22
2022/01/07 09:32:34;;;;;;;0.38;0.38;;;14.10;63.50;;;;;;5013735;28;20022;-22
2022/01/07 09:35:00;;;;;;;0.32;0.32;;;14.10;63.40;;;;;;5013609;28;20410;-23
2022/01/07 09:37:25;;;;;;;0.30;0.30;;;14.10;63.40;;;;;;5013282;28;20018;-21
2022/01/07 09:39:51;;;;;;;0.20;0.20;;;14.10;63.40;;;;;;5012378;28;20038;-22
2022/01/07 09:42:16;;;;;;;0.35;0.20;;;14.10;63.40;;;;;;5012687;28;20029;-21
2022/01/07 09:44:43;;;;;;;0.20;0.20;;;14.20;63.30;;;;;;5013138;28;20025;-22
2022/01/07 09:47:12;;;;;;;0.20;0.20;;;14.20;63.30;;;;;;5011898;28;20022;-20
2022/01/07 09:49:38;;;;;;;0.30;0.20;;;14.20;63.20;;;;;;5012475;28;20105;-22
2022/01/07 09:52:04;;;;;;;0.15;0.13;;;14.10;63.40;;;;;;5013182;28;20029;-21
2022/01/07 09:54:32;;;;;;;0.30;0.20;;;14.10;63.50;;;;;;5030681;28;20048;-20
2022/01/07 09:56:57;;;;;;;0.40;0.20;;;14.10;63.70;;;;;;5021724;28;20022;-22
2022/01/07 09:59:23;;;;;;;0.30;0.30;;;14.10;63.90;;;;;;5012955;28;20349;-22
2022/01/07 10:01:55;;;;;;;0.38;0.20;;;14.10;64.00;;;;;;5010663;28;20029;-21
2022/01/07 10:04:32;;;;;;;0.20;0.20;;;14.10;64.00;;;;;;5013907;28;20029;-22
2022/01/07 10:07:17;;;;;;;0.63;0.20;;;14.10;64.10;;;;;;5012728;28;20599;-22
2022/01/07 10:10:17;;;;;;;0.22;0.22;;;14.10;64.10;;;;;;4992650;28;20038;-22
2022/01/07 10:13:00;;;;;;;0.20;0.20;;;14.10;64.00;;;;;;4993032;28;20094;-21
2022/01/07 10:15:33;;;;;;;0.40;0.20;;;14.10;64.00;;;;;;5002278;28;20478;-21
2022/01/07 10:18:05;;;;;;;0.30;0.30;;;14.20;63.80;;;;;;5011622;28;20014;-22
2022/01/07 10:20:37;;;;;;;0.30;0.30;;;14.20;63.90;;;;;;5011889;28;20026;-23
2022/01/07 10:23:10;;;;;;;0.20;0.20;;;14.20;63.90;;;;;;5012663;28;20015;-22
2022/01/07 10:25:37;;;;;;;0.13;0.13;;;14.20;64.00;;;;;;5011946;28;20022;-20
2022/01/07 10:28:10;;;;;;;0.30;0.30;;;14.20;64.00;;;;;;5011674;28;20018;-23
2022/01/07 10:30:49;;;;;;;0.20;0.20;;;14.20;64.00;;;;;;5015876;28;20034;-22
2022/01/07 10:33:17;;;;;;;0.30;0.30;;;14.20;64.10;;;;;;5012231;28;20015;-22
2022/01/07 10:35:43;;;;;;;0.22;0.20;;;14.20;64.30;;;;;;5012852;28;20092;-22
2022/01/07 10:38:08;;;;;;;0.43;0.20;;;14.20;64.20;;;;;;5012605;28;20010;-21
2022/01/07 10:40:38;;;;;;;0.35;0.30;;;14.20;64.30;;;;;;5010696;28;20383;-22
2022/01/07 10:43:08;;;;;;;0.35;0.20;;;14.20;64.20;;;;;;5012707;28;20025;-20
2022/01/07 10:45:34;;;;;;;0.60;0.38;;;14.20;64.20;;;;;;5012798;28;20028;-22
2022/01/07 10:48:00;;;;;;;0.30;0.30;;;14.20;65.10;;;;;;5012495;28;20570;-22
2022/01/07 10:50:27;;;;;;;0.30;0.30;;;14.20;64.20;;;;;;5012011;28;20018;-22
2022/01/07 10:52:53;;;;;;;0.20;0.20;;;14.30;64.10;;;;;;5011740;28;20026;-22
2022/01/07 10:55:22;;;;;;;0.30;0.30;;;14.30;64.10;;;;;;5026631;28;20010;-20
2022/01/07 10:57:49;;;;;;;0.20;0.20;;;14.30;64.20;;;;;;5006273;28;20014;-22
2022/01/07 11:00:16;;;;;;;0.50;0.50;;;14.30;64.20;;;;;;5013529;28;20402;-20
2022/01/07 11:02:42;;;;;;;0.25;0.25;;;14.30;64.20;;;;;;5015029;28;20029;-21
2022/01/07 11:05:08;;;;;;;0.20;0.20;;;14.30;64.30;;;;;;5016845;28;20691;-21
2022/01/07 11:07:34;;;;;;;0.43;0.20;;;14.30;64.30;;;;;;5015716;28;20105;-23
2022/01/07 11:09:59;;;;;;;0.47;0.30;;;14.30;64.20;;;;;;5017302;28;20131;-23
2022/01/07 11:12:25;;;;;;;0.38;0.38;;;14.30;64.30;;;;;;5015688;28;20021;-22
2022/01/07 11:14:51;;;;;;;0.30;0.30;;;14.30;64.30;;;;;;5012049;28;20105;-21
2022/01/07 11:17:23;;;;;;;0.22;0.22;;;14.30;64.30;;;;;;5015794;28;20099;-23
2022/01/07 11:19:56;;;;;;;0.30;0.30;;;14.30;64.20;;;;;;5015022;28;20426;-20
2022/01/07 11:22:23;;;;;;;0.73;0.40;;;14.30;64.20;;;;;;5015452;28;20026;-21
2022/01/07 11:25:04;;;;;;;0.40;0.40;;;14.30;64.20;;;;;;5014368;28;20502;-22
2022/01/07 11:27:29;;;;;;;0.32;0.20;;;14.30;64.10;;;;;;4999691;28;20022;-22
2022/01/07 11:30:04;;;;;;;0.20;0.20;;;14.30;64.00;;;;;;5001628;28;20027;-23
2022/01/07 11:32:56;;;;;;;0.32;0.30;;;14.30;64.00;;;;;;5015369;28;20028;-22
2022/01/07 11:35:23;;;;;;;0.30;0.30;;;14.30;64.10;;;;;;5016044;28;20536;-22
2022/01/07 11:37:52;;;;;;;0.88;0.28;;;14.30;64.00;;;;;;5015525;28;20560;-22
2022/01/07 11:40:33;;;;;;;0.20;0.20;;;14.30;64.00;;;;;;5013878;28;20606;-22
2022/01/07 11:43:16;;;;;;;0.30;0.30;;;14.30;64.10;;;;;;5010332;28;20022;-21
2022/01/07 11:45:41;;;;;;;0.45;0.20;;;14.30;64.10;;;;;;5029642;28;20097;-21
2022/01/07 11:48:15;;;;;;;0.50;0.25;;;14.40;64.10;;;;;;5024002;28;20057;-21
2022/01/07 11:50:55;;;;;;;0.40;0.32;;;14.40;64.10;;;;;;5034244;28;20063;-21
2022/01/07 11:53:39;;;;;;;0.43;0.30;;;14.40;64.20;;;;;;5035028;28;20027;-21
2022/01/07 11:56:05;;;;;;;0.28;0.28;;;14.40;64.20;;;;;;5034794;28;20006;-20
2022/01/07 11:58:47;;;;;;;0.22;0.22;;;14.30;64.10;;;;;;5015017;28;20364;-21
2022/01/07 12:01:29;;;;;;;0.40;0.40;;;14.40;64.20;;;;;;5014387;28;20387;-22
2022/01/07 12:03:57;;;;;;;0.30;0.20;;;14.30;64.10;;;;;;5014558;28;20597;-23
2022/01/07 12:06:31;;;;;;;0.47;0.30;;;14.40;64.20;;;;;;5013209;28;20060;-21
2022/01/07 12:09:00;;;;;;;0.45;0.30;;;14.40;63.80;;;;;;5015279;28;20054;-21
2022/01/07 12:11:29;;;;;;;0.30;0.30;;;14.40;63.90;;;;;;5033108;28;20013;-21
2022/01/07 12:13:56;;;;;;;0.28;0.28;;;14.50;64.00;;;;;;5034573;28;20111;-24
2022/01/07 12:16:32;;;;;;;0.20;0.20;;;14.40;63.90;;;;;;5033416;28;20021;-20
2022/01/07 12:19:07;;;;;;;0.40;0.20;;;14.40;64.00;;;;;;5034387;28;20022;-23
2022/01/07 12:21:32;;;;;;;0.30;0.30;;;14.40;64.10;;;;;;5012755;28;20018;-22
2022/01/07 12:24:05;;;;;;;0.40;0.20;;;14.40;64.00;;;;;;5009381;28;20109;-21
2022/01/07 12:26:31;;;;;;;0.30;0.30;;;14.40;64.10;;;;;;5013704;28;20024;-22
2022/01/07 12:28:56;;;;;;;0.50;0.40;;;14.50;64.10;;;;;;5000217;28;20116;-22
2022/01/07 12:31:22;;;;;;;0.30;0.28;;;14.50;64.10;;;;;;5014378;28;20024;-23
2022/01/07 12:33:55;;;;;;;0.32;0.28;;;14.40;64.10;;;;;;5014294;28;20018;-22
2022/01/07 12:36:28;;;;;;;0.25;0.20;;;14.40;64.00;;;;;;5014335;28;20025;-22
2022/01/07 12:39:08;;;;;;;0.20;0.20;;;14.40;64.00;;;;;;5014001;28;20034;-20
2022/01/07 12:41:37;;;;;;;0.20;0.20;;;14.50;64.10;;;;;;5014144;28;20022;-22
2022/01/07 12:44:09;;;;;;;1.05;0.30;;;14.50;64.00;;;;;;5003849;28;20033;-20
2022/01/07 12:46:34;;;;;;;0.20;0.20;;;14.50;64.10;;;;;;4994638;28;20041;-23
2022/01/07 12:49:00;;;;;;;0.50;0.50;;;14.50;64.00;;;;;;4994597;28;20043;-19
2022/01/07 12:51:29;;;;;;;0.25;0.25;;;14.50;64.10;;;;;;4994608;28;20411;-22
2022/01/07 12:54:05;;;;;;;0.45;0.40;;;14.40;64.00;;;;;;5001203;28;20018;-22
2022/01/07 12:56:33;;;;;;;0.22;0.22;;;14.50;64.00;;;;;;5012400;28;20014;-20
2022/01/07 12:59:13;;;;;;;0.40;0.38;;;14.50;64.00;;;;;;5013932;28;20026;-20
2022/01/07 13:01:39;;;;;;;0.35;0.35;;;14.50;64.00;;;;;;5014177;28;20024;-21